Brockport, New York
Current Conditions -  °F | °C
As of 12:54 AM on Sunday 26 Oct 2014 (Local Time) from KROC Reporting Station
Clear Clear  
Wind Chill: 51°   Ceiling: Unl
Heat Index: 51°   Visibility: 10mi
Dew Point: 39°   Wind: 10mph
Humidity: 63%   Direction: 300°WNW
Pressure: 29.61"   Gusts: NA
Location:  43.21°N, 77.94°W
Report Text: KROC 260454Z 30009KT 10SM CLR 11/04 A2961 RMK AO2 SLP030 T01060039 401890067
Loading
Personal Weather Stations






























Interactive Weather Map
Tropical Storm Tracking
New forecast layout! Learn more

10-Day Weather Forecast

Advertisements
Track Severe Weather on mobile